sensor_id;sensor_type;location;lat;lon;timestamp;P1;durP1;ratioP1;P2;durP2;ratioP2
35917;SDS011;22011;59.912;30.300;2023-06-14T00:00:51;18.17;;;6.13;;
35917;SDS011;22011;59.912;30.300;2023-06-14T00:03:23;12.63;;;5.30;;
35917;SDS011;22011;59.912;30.300;2023-06-14T00:05:50;12.55;;;5.30;;
35917;SDS011;22011;59.912;30.300;2023-06-14T00:08:18;12.20;;;5.15;;
35917;SDS011;22011;59.912;30.300;2023-06-14T00:10:47;18.67;;;6.35;;
35917;SDS011;22011;59.912;30.300;2023-06-14T00:13:15;9.35;;;5.63;;
35917;SDS011;22011;59.912;30.300;2023-06-14T00:15:43;12.20;;;6.10;;
35917;SDS011;22011;59.912;30.300;2023-06-14T00:18:10;21.92;;;7.15;;
35917;SDS011;22011;59.912;30.300;2023-06-14T00:20:38;12.50;;;6.68;;
35917;SDS011;22011;59.912;30.300;2023-06-14T00:23:08;18.55;;;7.40;;
35917;SDS011;22011;59.912;30.300;2023-06-14T00:25:36;14.52;;;6.80;;
35917;SDS011;22011;59.912;30.300;2023-06-14T00:28:03;15.63;;;7.18;;
35917;SDS011;22011;59.912;30.300;2023-06-14T00:30:32;17.35;;;6.53;;
35917;SDS011;22011;59.912;30.300;2023-06-14T00:33:01;16.83;;;8.20;;
35917;SDS011;22011;59.912;30.300;2023-06-14T00:35:28;16.05;;;7.18;;
35917;SDS011;22011;59.912;30.300;2023-06-14T00:37:56;19.10;;;7.78;;
35917;SDS011;22011;59.912;30.300;2023-06-14T00:40:25;14.65;;;7.80;;
35917;SDS011;22011;59.912;30.300;2023-06-14T00:42:52;13.13;;;8.05;;
35917;SDS011;22011;59.912;30.300;2023-06-14T00:45:20;15.73;;;7.70;;
35917;SDS011;22011;59.912;30.300;2023-06-14T00:47:49;18.42;;;8.82;;
35917;SDS011;22011;59.912;30.300;2023-06-14T00:50:20;14.07;;;8.55;;
35917;SDS011;22011;59.912;30.300;2023-06-14T00:52:49;17.77;;;9.45;;
35917;SDS011;22011;59.912;30.300;2023-06-14T00:55:17;18.33;;;9.10;;
35917;SDS011;22011;59.912;30.300;2023-06-14T00:57:45;16.65;;;9.10;;
35917;SDS011;22011;59.912;30.300;2023-06-14T01:00:13;18.98;;;8.77;;
35917;SDS011;22011;59.912;30.300;2023-06-14T01:02:41;15.40;;;8.02;;
35917;SDS011;22011;59.912;30.300;2023-06-14T01:05:10;32.22;;;8.90;;
35917;SDS011;22011;59.912;30.300;2023-06-14T01:07:46;20.35;;;7.72;;
35917;SDS011;22011;59.912;30.300;2023-06-14T01:10:33;19.88;;;8.23;;
35917;SDS011;22011;59.912;30.300;2023-06-14T01:13:10;25.23;;;8.20;;
35917;SDS011;22011;59.912;30.300;2023-06-14T01:15:48;18.27;;;7.57;;
35917;SDS011;22011;59.912;30.300;2023-06-14T01:18:17;20.25;;;7.53;;
35917;SDS011;22011;59.912;30.300;2023-06-14T01:20:47;18.25;;;8.38;;
35917;SDS011;22011;59.912;30.300;2023-06-14T01:23:17;16.33;;;6.75;;
35917;SDS011;22011;59.912;30.300;2023-06-14T01:25:46;13.32;;;7.10;;
35917;SDS011;22011;59.912;30.300;2023-06-14T01:28:14;12.07;;;6.50;;
35917;SDS011;22011;59.912;30.300;2023-06-14T01:30:44;20.53;;;6.73;;
35917;SDS011;22011;59.912;30.300;2023-06-14T01:33:14;18.70;;;6.47;;
35917;SDS011;22011;59.912;30.300;2023-06-14T01:35:48;12.88;;;6.45;;
35917;SDS011;22011;59.912;30.300;2023-06-14T01:38:17;12.57;;;6.03;;
35917;SDS011;22011;59.912;30.300;2023-06-14T01:40:47;12.65;;;6.40;;
35917;SDS011;22011;59.912;30.300;2023-06-14T01:43:17;13.55;;;6.32;;
35917;SDS011;22011;59.912;30.300;2023-06-14T01:45:47;11.60;;;5.70;;
35917;SDS011;22011;59.912;30.300;2023-06-14T01:48:16;13.90;;;5.80;;
35917;SDS011;22011;59.912;30.300;2023-06-14T01:50:44;11.93;;;5.20;;
35917;SDS011;22011;59.912;30.300;2023-06-14T01:53:11;15.30;;;5.95;;
35917;SDS011;22011;59.912;30.300;2023-06-14T01:55:40;15.48;;;5.30;;
35917;SDS011;22011;59.912;30.300;2023-06-14T02:00:36;14.63;;;5.43;;
35917;SDS011;22011;59.912;30.300;2023-06-14T02:03:03;9.77;;;4.80;;
35917;SDS011;22011;59.912;30.300;2023-06-14T02:05:31;14.20;;;5.85;;
35917;SDS011;22011;59.912;30.300;2023-06-14T02:08:00;11.13;;;5.32;;
35917;SDS011;22011;59.912;30.300;2023-06-14T02:10:28;14.50;;;4.95;;
35917;SDS011;22011;59.912;30.300;2023-06-14T02:12:57;9.07;;;4.75;;
35917;SDS011;22011;59.912;30.300;2023-06-14T02:15:24;10.18;;;4.82;;
35917;SDS011;22011;59.912;30.300;2023-06-14T02:18:00;11.13;;;4.90;;
35917;SDS011;22011;59.912;30.300;2023-06-14T02:20:29;16.52;;;4.25;;
35917;SDS011;22011;59.912;30.300;2023-06-14T02:22:56;9.77;;;4.32;;
35917;SDS011;22011;59.912;30.300;2023-06-14T02:25:24;11.70;;;4.85;;
35917;SDS011;22011;59.912;30.300;2023-06-14T02:27:53;11.25;;;4.47;;
35917;SDS011;22011;59.912;30.300;2023-06-14T02:30:23;11.60;;;4.85;;
35917;SDS011;22011;59.912;30.300;2023-06-14T02:32:50;19.50;;;4.70;;
35917;SDS011;22011;59.912;30.300;2023-06-14T02:35:19;9.82;;;4.25;;
35917;SDS011;22011;59.912;30.300;2023-06-14T02:37:48;6.18;;;4.22;;
35917;SDS011;22011;59.912;30.300;2023-06-14T02:40:16;10.70;;;4.18;;
35917;SDS011;22011;59.912;30.300;2023-06-14T02:42:44;7.43;;;4.60;;
35917;SDS011;22011;59.912;30.300;2023-06-14T02:45:11;14.55;;;4.60;;
35917;SDS011;22011;59.912;30.300;2023-06-14T02:47:40;10.90;;;3.95;;
35917;SDS011;22011;59.912;30.300;2023-06-14T02:50:08;9.38;;;4.13;;
35917;SDS011;22011;59.912;30.300;2023-06-14T02:52:36;7.95;;;3.47;;
35917;SDS011;22011;59.912;30.300;2023-06-14T02:55:04;6.28;;;2.80;;
35917;SDS011;22011;59.912;30.300;2023-06-14T02:57:32;9.18;;;3.13;;
35917;SDS011;22011;59.912;30.300;2023-06-14T02:59:59;9.32;;;2.47;;
35917;SDS011;22011;59.912;30.300;2023-06-14T03:02:27;7.15;;;2.35;;
35917;SDS011;22011;59.912;30.300;2023-06-14T03:04:56;4.95;;;2.33;;
35917;SDS011;22011;59.912;30.300;2023-06-14T03:07:29;4.53;;;2.60;;
35917;SDS011;22011;59.912;30.300;2023-06-14T03:09:58;3.78;;;2.30;;
35917;SDS011;22011;59.912;30.300;2023-06-14T03:12:26;5.13;;;1.80;;
35917;SDS011;22011;59.912;30.300;2023-06-14T03:14:54;3.40;;;2.20;;
35917;SDS011;22011;59.912;30.300;2023-06-14T03:17:23;5.75;;;2.40;;
35917;SDS011;22011;59.912;30.300;2023-06-14T03:19:57;10.35;;;2.88;;
35917;SDS011;22011;59.912;30.300;2023-06-14T03:22:25;6.25;;;2.60;;
35917;SDS011;22011;59.912;30.300;2023-06-14T03:24:52;5.10;;;2.58;;
35917;SDS011;22011;59.912;30.300;2023-06-14T03:27:21;5.00;;;2.15;;
35917;SDS011;22011;59.912;30.300;2023-06-14T03:29:48;5.00;;;2.33;;
35917;SDS011;22011;59.912;30.300;2023-06-14T03:32:16;6.43;;;2.55;;
35917;SDS011;22011;59.912;30.300;2023-06-14T03:34:44;6.28;;;2.85;;
35917;SDS011;22011;59.912;30.300;2023-06-14T03:37:22;3.10;;;2.33;;
35917;SDS011;22011;59.912;30.300;2023-06-14T03:39:49;3.92;;;2.53;;
35917;SDS011;22011;59.912;30.300;2023-06-14T03:42:23;4.65;;;2.30;;
35917;SDS011;22011;59.912;30.300;2023-06-14T03:44:50;8.13;;;2.97;;
35917;SDS011;22011;59.912;30.300;2023-06-14T03:49:48;7.82;;;2.80;;
35917;SDS011;22011;59.912;30.300;2023-06-14T03:52:15;5.28;;;2.47;;
35917;SDS011;22011;59.912;30.300;2023-06-14T03:54:46;11.65;;;2.53;;
35917;SDS011;22011;59.912;30.300;2023-06-14T03:57:14;8.18;;;2.95;;
35917;SDS011;22011;59.912;30.300;2023-06-14T03:59:43;7.82;;;2.90;;
35917;SDS011;22011;59.912;30.300;2023-06-14T04:02:11;9.23;;;3.03;;
35917;SDS011;22011;59.912;30.300;2023-06-14T04:04:41;5.20;;;2.80;;
35917;SDS011;22011;59.912;30.300;2023-06-14T04:07:11;6.35;;;3.25;;
35917;SDS011;22011;59.912;30.300;2023-06-14T04:09:38;6.45;;;3.15;;
35917;SDS011;22011;59.912;30.300;2023-06-14T04:12:08;4.93;;;2.80;;
35917;SDS011;22011;59.912;30.300;2023-06-14T04:14:37;4.65;;;2.88;;
35917;SDS011;22011;59.912;30.300;2023-06-14T04:17:07;6.10;;;2.88;;
35917;SDS011;22011;59.912;30.300;2023-06-14T04:19:37;8.02;;;2.53;;
35917;SDS011;22011;59.912;30.300;2023-06-14T04:22:05;7.55;;;2.40;;
35917;SDS011;22011;59.912;30.300;2023-06-14T04:24:34;3.85;;;2.65;;
35917;SDS011;22011;59.912;30.300;2023-06-14T04:27:03;3.47;;;2.55;;
35917;SDS011;22011;59.912;30.300;2023-06-14T04:29:34;5.95;;;2.38;;
35917;SDS011;22011;59.912;30.300;2023-06-14T04:32:05;5.65;;;2.58;;
35917;SDS011;22011;59.912;30.300;2023-06-14T04:34:37;5.68;;;2.53;;
35917;SDS011;22011;59.912;30.300;2023-06-14T04:37:06;3.53;;;2.17;;
35917;SDS011;22011;59.912;30.300;2023-06-14T04:39:40;4.10;;;2.40;;
35917;SDS011;22011;59.912;30.300;2023-06-14T04:42:09;2.90;;;2.20;;
35917;SDS011;22011;59.912;30.300;2023-06-14T04:44:39;4.00;;;2.35;;
35917;SDS011;22011;59.912;30.300;2023-06-14T04:47:06;4.18;;;2.20;;
35917;SDS011;22011;59.912;30.300;2023-06-14T04:49:35;5.10;;;2.63;;
35917;SDS011;22011;59.912;30.300;2023-06-14T04:52:04;6.13;;;2.60;;
35917;SDS011;22011;59.912;30.300;2023-06-14T04:54:35;6.78;;;2.38;;
35917;SDS011;22011;59.912;30.300;2023-06-14T04:57:04;5.10;;;2.65;;
35917;SDS011;22011;59.912;30.300;2023-06-14T04:59:32;5.50;;;2.13;;
35917;SDS011;22011;59.912;30.300;2023-06-14T05:02:03;5.28;;;2.47;;
35917;SDS011;22011;59.912;30.300;2023-06-14T05:04:33;3.53;;;2.17;;
35917;SDS011;22011;59.912;30.300;2023-06-14T05:07:06;5.28;;;2.65;;
35917;SDS011;22011;59.912;30.300;2023-06-14T05:09:35;5.63;;;3.25;;
35917;SDS011;22011;59.912;30.300;2023-06-14T05:12:02;4.07;;;2.60;;
35917;SDS011;22011;59.912;30.300;2023-06-14T05:14:31;3.63;;;2.33;;
35917;SDS011;22011;59.912;30.300;2023-06-14T05:16:58;7.43;;;2.42;;
35917;SDS011;22011;59.912;30.300;2023-06-14T05:19:27;7.32;;;2.95;;
35917;SDS011;22011;59.912;30.300;2023-06-14T05:21:55;4.13;;;2.53;;
35917;SDS011;22011;59.912;30.300;2023-06-14T05:24:22;4.55;;;2.55;;
35917;SDS011;22011;59.912;30.300;2023-06-14T05:26:50;6.10;;;2.50;;
35917;SDS011;22011;59.912;30.300;2023-06-14T05:29:17;3.60;;;2.03;;
35917;SDS011;22011;59.912;30.300;2023-06-14T05:31:45;2.63;;;1.88;;
35917;SDS011;22011;59.912;30.300;2023-06-14T05:34:12;7.00;;;2.40;;
35917;SDS011;22011;59.912;30.300;2023-06-14T05:36:41;4.10;;;2.15;;
35917;SDS011;22011;59.912;30.300;2023-06-14T05:39:09;5.72;;;2.50;;
35917;SDS011;22011;59.912;30.300;2023-06-14T05:41:36;3.90;;;2.50;;
35917;SDS011;22011;59.912;30.300;2023-06-14T05:44:04;5.03;;;2.10;;
35917;SDS011;22011;59.912;30.300;2023-06-14T05:46:31;6.78;;;2.67;;
35917;SDS011;22011;59.912;30.300;2023-06-14T05:48:59;6.25;;;2.90;;
35917;SDS011;22011;59.912;30.300;2023-06-14T05:51:26;5.47;;;2.33;;
35917;SDS011;22011;59.912;30.300;2023-06-14T05:53:56;9.65;;;2.55;;
35917;SDS011;22011;59.912;30.300;2023-06-14T05:56:23;4.23;;;2.60;;
35917;SDS011;22011;59.912;30.300;2023-06-14T05:58:51;7.00;;;2.63;;
35917;SDS011;22011;59.912;30.300;2023-06-14T06:01:19;3.78;;;2.33;;
35917;SDS011;22011;59.912;30.300;2023-06-14T06:03:47;4.57;;;2.35;;
35917;SDS011;22011;59.912;30.300;2023-06-14T06:06:14;7.00;;;3.42;;
35917;SDS011;22011;59.912;30.300;2023-06-14T06:08:42;5.75;;;2.63;;
35917;SDS011;22011;59.912;30.300;2023-06-14T06:11:11;6.80;;;2.28;;
35917;SDS011;22011;59.912;30.300;2023-06-14T06:13:38;6.60;;;2.47;;
35917;SDS011;22011;59.912;30.300;2023-06-14T06:16:06;5.22;;;2.60;;
35917;SDS011;22011;59.912;30.300;2023-06-14T06:18:34;6.80;;;2.28;;
35917;SDS011;22011;59.912;30.300;2023-06-14T06:21:03;6.68;;;2.50;;
35917;SDS011;22011;59.912;30.300;2023-06-14T06:23:30;8.35;;;2.50;;
35917;SDS011;22011;59.912;30.300;2023-06-14T06:25:58;10.32;;;3.28;;
35917;SDS011;22011;59.912;30.300;2023-06-14T06:28:27;4.60;;;3.22;;
35917;SDS011;22011;59.912;30.300;2023-06-14T06:30:54;6.95;;;3.83;;
35917;SDS011;22011;59.912;30.300;2023-06-14T06:33:22;8.88;;;3.70;;
35917;SDS011;22011;59.912;30.300;2023-06-14T06:35:49;8.23;;;2.92;;
35917;SDS011;22011;59.912;30.300;2023-06-14T06:38:17;9.75;;;2.88;;
35917;SDS011;22011;59.912;30.300;2023-06-14T06:40:45;6.05;;;2.95;;
35917;SDS011;22011;59.912;30.300;2023-06-14T06:43:13;5.40;;;3.55;;
35917;SDS011;22011;59.912;30.300;2023-06-14T06:45:47;4.68;;;3.30;;
35917;SDS011;22011;59.912;30.300;2023-06-14T06:48:15;5.30;;;2.83;;
35917;SDS011;22011;59.912;30.300;2023-06-14T06:50:42;4.57;;;2.50;;
35917;SDS011;22011;59.912;30.300;2023-06-14T06:53:10;14.63;;;4.40;;
35917;SDS011;22011;59.912;30.300;2023-06-14T06:55:38;7.88;;;3.17;;
35917;SDS011;22011;59.912;30.300;2023-06-14T06:58:05;8.50;;;3.20;;
35917;SDS011;22011;59.912;30.300;2023-06-14T07:00:33;16.55;;;4.30;;
35917;SDS011;22011;59.912;30.300;2023-06-14T07:03:02;9.90;;;4.03;;
35917;SDS011;22011;59.912;30.300;2023-06-14T07:05:30;12.30;;;3.50;;
35917;SDS011;22011;59.912;30.300;2023-06-14T07:07:57;19.70;;;4.93;;
35917;SDS011;22011;59.912;30.300;2023-06-14T07:10:25;16.85;;;5.85;;
35917;SDS011;22011;59.912;30.300;2023-06-14T07:12:52;16.10;;;7.53;;
35917;SDS011;22011;59.912;30.300;2023-06-14T07:15:21;13.40;;;9.50;;
35917;SDS011;22011;59.912;30.300;2023-06-14T07:17:48;10.13;;;7.28;;
35917;SDS011;22011;59.912;30.300;2023-06-14T07:20:18;15.30;;;5.40;;
35917;SDS011;22011;59.912;30.300;2023-06-14T07:22:47;12.38;;;4.45;;
35917;SDS011;22011;59.912;30.300;2023-06-14T07:25:15;19.23;;;5.38;;
35917;SDS011;22011;59.912;30.300;2023-06-14T07:27:46;12.57;;;3.95;;
35917;SDS011;22011;59.912;30.300;2023-06-14T07:30:13;15.10;;;4.60;;
35917;SDS011;22011;59.912;30.300;2023-06-14T07:32:41;11.48;;;3.55;;
35917;SDS011;22011;59.912;30.300;2023-06-14T07:35:09;16.33;;;3.47;;
35917;SDS011;22011;59.912;30.300;2023-06-14T07:37:38;5.57;;;3.38;;
35917;SDS011;22011;59.912;30.300;2023-06-14T07:40:06;10.50;;;3.80;;
35917;SDS011;22011;59.912;30.300;2023-06-14T07:42:36;12.32;;;4.40;;
35917;SDS011;22011;59.912;30.300;2023-06-14T07:45:03;53.85;;;7.38;;
35917;SDS011;22011;59.912;30.300;2023-06-14T07:47:31;23.58;;;5.70;;
35917;SDS011;22011;59.912;30.300;2023-06-14T07:49:59;23.02;;;12.30;;
35917;SDS011;22011;59.912;30.300;2023-06-14T07:52:26;19.02;;;9.60;;
35917;SDS011;22011;59.912;30.300;2023-06-14T07:54:55;11.55;;;5.75;;
35917;SDS011;22011;59.912;30.300;2023-06-14T07:57:24;18.48;;;5.15;;
35917;SDS011;22011;59.912;30.300;2023-06-14T07:59:52;9.13;;;4.20;;
35917;SDS011;22011;59.912;30.300;2023-06-14T08:02:19;14.05;;;5.15;;
35917;SDS011;22011;59.912;30.300;2023-06-14T08:04:48;25.73;;;6.22;;
35917;SDS011;22011;59.912;30.300;2023-06-14T08:07:15;16.95;;;5.88;;
35917;SDS011;22011;59.912;30.300;2023-06-14T08:09:43;14.77;;;6.07;;
35917;SDS011;22011;59.912;30.300;2023-06-14T08:12:12;23.15;;;5.05;;
35917;SDS011;22011;59.912;30.300;2023-06-14T08:14:39;11.97;;;3.97;;
35917;SDS011;22011;59.912;30.300;2023-06-14T08:17:07;10.68;;;4.30;;
35917;SDS011;22011;59.912;30.300;2023-06-14T08:19:35;17.15;;;4.07;;
35917;SDS011;22011;59.912;30.300;2023-06-14T08:22:02;10.02;;;4.20;;
35917;SDS011;22011;59.912;30.300;2023-06-14T08:24:30;8.50;;;3.28;;
35917;SDS011;22011;59.912;30.300;2023-06-14T08:26:58;14.95;;;7.35;;
35917;SDS011;22011;59.912;30.300;2023-06-14T08:31:56;13.45;;;6.22;;
35917;SDS011;22011;59.912;30.300;2023-06-14T08:34:24;25.80;;;5.07;;
35917;SDS011;22011;59.912;30.300;2023-06-14T08:36:52;15.57;;;4.55;;
35917;SDS011;22011;59.912;30.300;2023-06-14T08:39:19;8.52;;;5.00;;
35917;SDS011;22011;59.912;30.300;2023-06-14T08:41:47;8.80;;;4.30;;
35917;SDS011;22011;59.912;30.300;2023-06-14T08:44:15;10.13;;;3.80;;
35917;SDS011;22011;59.912;30.300;2023-06-14T08:46:45;11.65;;;5.22;;
35917;SDS011;22011;59.912;30.300;2023-06-14T08:49:16;12.90;;;4.95;;
35917;SDS011;22011;59.912;30.300;2023-06-14T08:51:44;7.75;;;3.88;;
35917;SDS011;22011;59.912;30.300;2023-06-14T08:54:13;12.53;;;4.97;;
35917;SDS011;22011;59.912;30.300;2023-06-14T08:56:42;6.25;;;3.38;;
35917;SDS011;22011;59.912;30.300;2023-06-14T08:59:10;6.78;;;3.00;;
35917;SDS011;22011;59.912;30.300;2023-06-14T09:01:39;6.35;;;3.38;;
35917;SDS011;22011;59.912;30.300;2023-06-14T09:04:08;4.78;;;2.97;;
35917;SDS011;22011;59.912;30.300;2023-06-14T09:06:35;5.27;;;3.10;;
35917;SDS011;22011;59.912;30.300;2023-06-14T09:09:03;8.60;;;2.85;;
35917;SDS011;22011;59.912;30.300;2023-06-14T09:11:31;9.20;;;5.78;;
35917;SDS011;22011;59.912;30.300;2023-06-14T09:13:58;9.70;;;5.70;;
35917;SDS011;22011;59.912;30.300;2023-06-14T09:16:27;8.73;;;6.18;;
35917;SDS011;22011;59.912;30.300;2023-06-14T09:18:55;13.88;;;5.07;;
35917;SDS011;22011;59.912;30.300;2023-06-14T09:21:23;12.27;;;3.92;;
35917;SDS011;22011;59.912;30.300;2023-06-14T09:23:51;9.18;;;4.25;;
35917;SDS011;22011;59.912;30.300;2023-06-14T09:26:19;8.82;;;3.53;;
35917;SDS011;22011;59.912;30.300;2023-06-14T09:28:49;16.75;;;3.22;;
35917;SDS011;22011;59.912;30.300;2023-06-14T09:31:17;9.20;;;2.88;;
35917;SDS011;22011;59.912;30.300;2023-06-14T09:33:47;6.00;;;2.70;;
35917;SDS011;22011;59.912;30.300;2023-06-14T09:36:15;4.77;;;2.67;;
35917;SDS011;22011;59.912;30.300;2023-06-14T09:38:52;3.28;;;2.53;;
35917;SDS011;22011;59.912;30.300;2023-06-14T09:41:20;10.57;;;3.28;;
35917;SDS011;22011;59.912;30.300;2023-06-14T09:43:57;11.52;;;3.63;;
35917;SDS011;22011;59.912;30.300;2023-06-14T09:46:26;9.50;;;2.75;;
35917;SDS011;22011;59.912;30.300;2023-06-14T09:48:54;4.35;;;2.72;;
35917;SDS011;22011;59.912;30.300;2023-06-14T09:51:21;4.13;;;2.70;;
35917;SDS011;22011;59.912;30.300;2023-06-14T09:53:49;7.85;;;2.78;;
35917;SDS011;22011;59.912;30.300;2023-06-14T09:56:22;6.28;;;2.70;;
35917;SDS011;22011;59.912;30.300;2023-06-14T09:58:54;6.30;;;3.22;;
35917;SDS011;22011;59.912;30.300;2023-06-14T10:03:50;6.10;;;2.75;;
35917;SDS011;22011;59.912;30.300;2023-06-14T10:06:23;4.10;;;3.00;;
35917;SDS011;22011;59.912;30.300;2023-06-14T10:08:52;7.18;;;3.88;;
35917;SDS011;22011;59.912;30.300;2023-06-14T10:11:26;5.30;;;3.20;;
35917;SDS011;22011;59.912;30.300;2023-06-14T10:13:55;5.95;;;2.95;;
35917;SDS011;22011;59.912;30.300;2023-06-14T10:16:23;4.40;;;2.53;;
35917;SDS011;22011;59.912;30.300;2023-06-14T10:18:59;5.50;;;2.70;;
35917;SDS011;22011;59.912;30.300;2023-06-14T10:21:36;9.68;;;2.70;;
35917;SDS011;22011;59.912;30.300;2023-06-14T10:24:10;4.93;;;2.63;;
35917;SDS011;22011;59.912;30.300;2023-06-14T10:26:51;17.90;;;3.58;;
35917;SDS011;22011;59.912;30.300;2023-06-14T10:29:20;11.93;;;2.95;;
35917;SDS011;22011;59.912;30.300;2023-06-14T10:31:48;6.35;;;2.60;;
35917;SDS011;22011;59.912;30.300;2023-06-14T10:34:23;7.90;;;2.63;;
35917;SDS011;22011;59.912;30.300;2023-06-14T10:37:02;12.45;;;2.55;;
35917;SDS011;22011;59.912;30.300;2023-06-14T10:39:30;6.50;;;2.78;;
35917;SDS011;22011;59.912;30.300;2023-06-14T10:42:01;10.32;;;3.03;;
35917;SDS011;22011;59.912;30.300;2023-06-14T10:44:40;7.15;;;2.85;;
35917;SDS011;22011;59.912;30.300;2023-06-14T10:47:09;8.48;;;3.25;;
35917;SDS011;22011;59.912;30.300;2023-06-14T10:49:49;13.00;;;3.50;;
35917;SDS011;22011;59.912;30.300;2023-06-14T10:52:20;6.13;;;3.00;;
35917;SDS011;22011;59.912;30.300;2023-06-14T10:54:59;10.98;;;3.00;;
35917;SDS011;22011;59.912;30.300;2023-06-14T10:57:31;7.50;;;2.70;;
35917;SDS011;22011;59.912;30.300;2023-06-14T10:59:59;2.95;;;2.45;;
35917;SDS011;22011;59.912;30.300;2023-06-14T11:05:48;8.70;;;6.50;;
35917;SDS011;22011;59.912;30.300;2023-06-14T11:08:33;8.73;;;4.13;;
35917;SDS011;22011;59.912;30.300;2023-06-14T11:11:14;7.72;;;2.92;;
35917;SDS011;22011;59.912;30.300;2023-06-14T11:13:44;8.40;;;2.50;;
35917;SDS011;22011;59.912;30.300;2023-06-14T11:16:12;8.57;;;3.33;;
35917;SDS011;22011;59.912;30.300;2023-06-14T11:18:41;13.38;;;8.90;;
35917;SDS011;22011;59.912;30.300;2023-06-14T11:21:09;9.82;;;5.13;;
35917;SDS011;22011;59.912;30.300;2023-06-14T11:23:37;5.22;;;3.17;;
35917;SDS011;22011;59.912;30.300;2023-06-14T11:26:04;9.25;;;2.80;;
35917;SDS011;22011;59.912;30.300;2023-06-14T11:28:38;11.20;;;2.80;;
35917;SDS011;22011;59.912;30.300;2023-06-14T11:31:08;3.35;;;2.72;;
35917;SDS011;22011;59.912;30.300;2023-06-14T11:33:36;5.28;;;2.75;;
35917;SDS011;22011;59.912;30.300;2023-06-14T11:36:05;5.85;;;2.75;;
35917;SDS011;22011;59.912;30.300;2023-06-14T11:38:35;5.35;;;2.67;;
35917;SDS011;22011;59.912;30.300;2023-06-14T11:41:03;6.03;;;3.08;;
35917;SDS011;22011;59.912;30.300;2023-06-14T11:43:31;15.25;;;2.80;;
35917;SDS011;22011;59.912;30.300;2023-06-14T11:48:38;7.43;;;2.60;;
35917;SDS011;22011;59.912;30.300;2023-06-14T11:51:06;4.13;;;2.95;;
35917;SDS011;22011;59.912;30.300;2023-06-14T11:53:34;6.72;;;3.60;;
35917;SDS011;22011;59.912;30.300;2023-06-14T11:56:01;5.93;;;2.53;;
35917;SDS011;22011;59.912;30.300;2023-06-14T11:58:29;5.15;;;2.45;;
35917;SDS011;22011;59.912;30.300;2023-06-14T12:00:57;6.70;;;2.67;;
35917;SDS011;22011;59.912;30.300;2023-06-14T12:03:24;5.53;;;2.85;;
35917;SDS011;22011;59.912;30.300;2023-06-14T12:06:07;8.32;;;2.63;;
35917;SDS011;22011;59.912;30.300;2023-06-14T12:08:36;5.60;;;3.00;;
35917;SDS011;22011;59.912;30.300;2023-06-14T12:11:06;12.60;;;3.85;;
35917;SDS011;22011;59.912;30.300;2023-06-14T12:13:37;12.18;;;3.55;;
35917;SDS011;22011;59.912;30.300;2023-06-14T12:16:06;26.35;;;17.25;;
35917;SDS011;22011;59.912;30.300;2023-06-14T12:18:35;10.68;;;6.15;;
35917;SDS011;22011;59.912;30.300;2023-06-14T12:21:04;8.30;;;4.75;;
35917;SDS011;22011;59.912;30.300;2023-06-14T12:23:41;23.65;;;13.15;;
35917;SDS011;22011;59.912;30.300;2023-06-14T12:26:12;18.48;;;9.73;;
35917;SDS011;22011;59.912;30.300;2023-06-14T12:28:40;6.20;;;4.50;;
35917;SDS011;22011;59.912;30.300;2023-06-14T12:31:08;5.35;;;3.00;;
35917;SDS011;22011;59.912;30.300;2023-06-14T12:33:37;6.85;;;2.80;;
35917;SDS011;22011;59.912;30.300;2023-06-14T12:36:06;12.60;;;3.13;;
35917;SDS011;22011;59.912;30.300;2023-06-14T12:38:34;6.18;;;3.05;;
35917;SDS011;22011;59.912;30.300;2023-06-14T12:41:04;4.43;;;2.60;;
35917;SDS011;22011;59.912;30.300;2023-06-14T12:43:31;5.35;;;2.47;;
35917;SDS011;22011;59.912;30.300;2023-06-14T12:45:59;3.45;;;2.50;;
35917;SDS011;22011;59.912;30.300;2023-06-14T12:48:27;6.90;;;2.78;;
35917;SDS011;22011;59.912;30.300;2023-06-14T12:50:55;5.05;;;2.78;;
35917;SDS011;22011;59.912;30.300;2023-06-14T12:53:23;2.97;;;2.50;;
35917;SDS011;22011;59.912;30.300;2023-06-14T12:55:51;5.43;;;3.03;;
35917;SDS011;22011;59.912;30.300;2023-06-14T12:58:19;3.42;;;2.53;;
35917;SDS011;22011;59.912;30.300;2023-06-14T13:00:47;5.90;;;2.70;;
35917;SDS011;22011;59.912;30.300;2023-06-14T13:03:14;6.32;;;2.60;;
35917;SDS011;22011;59.912;30.300;2023-06-14T13:05:42;3.03;;;2.53;;
35917;SDS011;22011;59.912;30.300;2023-06-14T13:08:10;4.13;;;2.67;;
35917;SDS011;22011;59.912;30.300;2023-06-14T13:10:37;7.93;;;3.10;;
35917;SDS011;22011;59.912;30.300;2023-06-14T13:13:05;3.75;;;2.30;;
35917;SDS011;22011;59.912;30.300;2023-06-14T13:15:34;9.48;;;3.20;;
35917;SDS011;22011;59.912;30.300;2023-06-14T13:18:02;2.90;;;2.22;;
35917;SDS011;22011;59.912;30.300;2023-06-14T13:20:29;3.42;;;2.40;;
35917;SDS011;22011;59.912;30.300;2023-06-14T13:22:57;6.95;;;2.55;;
35917;SDS011;22011;59.912;30.300;2023-06-14T13:25:26;3.38;;;2.60;;
35917;SDS011;22011;59.912;30.300;2023-06-14T13:27:53;4.30;;;3.03;;
35917;SDS011;22011;59.912;30.300;2023-06-14T13:30:21;8.23;;;3.22;;
35917;SDS011;22011;59.912;30.300;2023-06-14T13:32:50;5.63;;;2.95;;
35917;SDS011;22011;59.912;30.300;2023-06-14T13:35:18;6.00;;;2.95;;
35917;SDS011;22011;59.912;30.300;2023-06-14T13:37:45;2.97;;;2.63;;
35917;SDS011;22011;59.912;30.300;2023-06-14T13:40:13;4.43;;;3.20;;
35917;SDS011;22011;59.912;30.300;2023-06-14T13:42:41;8.02;;;2.78;;
35917;SDS011;22011;59.912;30.300;2023-06-14T13:45:10;7.78;;;3.10;;
35917;SDS011;22011;59.912;30.300;2023-06-14T13:47:38;8.73;;;2.90;;
35917;SDS011;22011;59.912;30.300;2023-06-14T13:50:08;4.20;;;2.85;;
35917;SDS011;22011;59.912;30.300;2023-06-14T13:55:03;4.38;;;2.70;;
35917;SDS011;22011;59.912;30.300;2023-06-14T13:57:31;3.67;;;2.30;;
35917;SDS011;22011;59.912;30.300;2023-06-14T13:59:58;5.93;;;2.70;;
35917;SDS011;22011;59.912;30.300;2023-06-14T14:02:27;4.95;;;2.90;;
35917;SDS011;22011;59.912;30.300;2023-06-14T14:04:55;3.20;;;2.50;;
35917;SDS011;22011;59.912;30.300;2023-06-14T14:07:24;6.80;;;3.17;;
35917;SDS011;22011;59.912;30.300;2023-06-14T14:09:52;5.05;;;2.55;;
35917;SDS011;22011;59.912;30.300;2023-06-14T14:12:20;3.88;;;2.60;;
35917;SDS011;22011;59.912;30.300;2023-06-14T14:14:47;4.70;;;3.03;;
35917;SDS011;22011;59.912;30.300;2023-06-14T14:17:15;5.32;;;3.40;;
35917;SDS011;22011;59.912;30.300;2023-06-14T14:19:42;10.80;;;2.78;;
35917;SDS011;22011;59.912;30.300;2023-06-14T14:22:09;5.97;;;2.85;;
35917;SDS011;22011;59.912;30.300;2023-06-14T14:24:38;5.85;;;3.03;;
35917;SDS011;22011;59.912;30.300;2023-06-14T14:27:06;5.10;;;2.50;;
35917;SDS011;22011;59.912;30.300;2023-06-14T14:29:33;9.20;;;2.95;;
35917;SDS011;22011;59.912;30.300;2023-06-14T14:32:01;4.90;;;2.95;;
35917;SDS011;22011;59.912;30.300;2023-06-14T14:34:29;7.93;;;3.03;;
35917;SDS011;22011;59.912;30.300;2023-06-14T14:36:56;5.35;;;3.13;;
35917;SDS011;22011;59.912;30.300;2023-06-14T14:39:24;6.70;;;2.78;;
35917;SDS011;22011;59.912;30.300;2023-06-14T14:41:53;4.97;;;2.70;;
35917;SDS011;22011;59.912;30.300;2023-06-14T14:44:20;3.22;;;2.35;;
35917;SDS011;22011;59.912;30.300;2023-06-14T14:46:48;4.75;;;2.90;;
35917;SDS011;22011;59.912;30.300;2023-06-14T14:49:16;5.07;;;2.47;;
35917;SDS011;22011;59.912;30.300;2023-06-14T14:51:43;2.80;;;2.42;;
35917;SDS011;22011;59.912;30.300;2023-06-14T14:54:10;3.63;;;2.53;;
35917;SDS011;22011;59.912;30.300;2023-06-14T14:56:38;3.22;;;2.58;;
35917;SDS011;22011;59.912;30.300;2023-06-14T14:59:07;4.85;;;3.03;;